Latest Weather Observations for Flinders Island Airport

IDT60801

Issued at 12:01 pm EST Saturday 28 May 2016 (issued every 30 minutes, with the page automatically refreshed every 10 minutes)

About weather observations | Map of weather stations | Latest weather observations for TAS | Other Formats
Station Details ID: 099005 Name: FLINDERS ISLAND AIRPORT Lat: -40.09 Lon: 148.00 Height: 9.0 m
Data from the previous 72 hours. | See also: Recent months at Flinders Island Airport
Date/Time
EST
Temp
°C
App
Temp
°C
Dew
Point
Rel
Hum
%
Delta-T
°C
Wind Press
QNH
hPa
Press
MSL
hPa
Rain
since 9 am
mm
Dir
 
Spd
km/h
Gust
km/h
Spd
kts
Gust
kts
28/12:00pm 13.7 9.2 8.5 71 2.6 WSW 22 26 12 14 1006.8 1006.8 0.0
28/11:30am 13.9 9.5 7.4 65 3.2 WSW 20 24 11 13 1007.0 1007.0 0.0
28/11:00am 13.9 9.9 8.1 68 2.9 WSW 19 24 10 13 1007.4 1007.4 0.0
28/10:30am 13.7 10.1 8.3 70 2.7 WSW 17 22 9 12 1007.5 1007.5 0.0
28/10:00am 13.1 10.7 11.3 89 1.0 WSW 15 19 8 10 1007.4 1007.4 0.0
28/09:30am 11.1 8.4 10.5 96 0.3 WSW 15 17 8 9 1007.3 1007.3 0.0
28/09:00am 10.0 9.1 9.4 96 0.3 WNW 4 13 2 7 1007.3 1007.3 2.8
28/08:30am 9.2 8.8 8.4 95 0.4 CALM 0 0 0 0 1007.3 1007.3 2.8
28/08:00am 9.5 8.1 8.7 95 0.4 NE 6 7 3 4 1007.2 1007.2 2.8
28/07:30am 9.3 7.6 8.4 94 0.4 NE 7 9 4 5 1007.2 1007.2 2.8
28/07:10am 9.4 7.7 8.3 93 0.5 N 7 7 4 4 1007.1 1007.1 2.8
28/07:00am 9.3 7.7 8.2 93 0.5 NNE 6 7 3 4 1007.0 1007.0 2.8
28/06:41am 9.3 8.5 8.1 92 0.6 NNW 2 7 1 4 1006.9 1006.9 2.6
28/06:30am 9.4 9.0 8.2 92 0.6 CALM 0 0 0 0 1006.8 1006.8 2.6
28/06:00am 9.4 8.9 8.0 91 0.7 CALM 0 2 0 1 1006.5 1006.5 2.6
28/05:30am 9.3 7.5 7.9 91 0.7 NE 7 9 4 5 1006.3 1006.3 2.6
28/05:00am 9.4 7.3 8.2 92 0.6 NE 9 11 5 6 1006.3 1006.3 2.6
28/04:30am 9.3 6.3 7.9 91 0.7 NE 13 15 7 8 1006.4 1006.4 2.6
28/04:00am 9.6 7.0 7.9 89 0.8 ENE 11 13 6 7 1006.5 1006.5 2.6
28/03:30am 10.0 7.8 7.8 86 1.1 ESE 9 15 5 8 1006.5 1006.5 2.6
28/03:00am 10.1 7.9 7.9 86 1.1 SE 9 13 5 7 1006.6 1006.6 2.6
28/02:30am 10.6 7.7 8.2 85 1.2 S 13 22 7 12 1006.7 1006.7 2.6
28/02:00am 10.9 7.4 8.8 87 1.0 S 17 24 9 13 1006.6 1006.6 2.6
28/01:30am 10.7 6.3 9.0 89 0.8 S 22 28 12 15 1006.4 1006.4 2.6
28/01:00am 10.6 6.1 8.7 88 0.9 S 22 30 12 16 1006.3 1006.3 2.6
28/12:36am 10.6 6.8 8.9 89 0.8 S 19 28 10 15 1006.4 1006.4 2.6
28/12:30am 10.5 6.6 8.8 89 0.8 S 19 26 10 14 1006.4 1006.4 2.6
28/12:08am 10.5 6.6 8.6 88 0.9 S 19 26 10 14 1006.6 1006.6 2.2
28/12:00am 10.7 6.6 8.8 88 0.9 S 20 30 11 16 1006.6 1006.6 2.2
 
Date/Time
EST
Temp
°C
App
Temp
°C
Dew
Point
Rel
Hum
%
Delta-T
°C
Wind Press
QNH
hPa
Press
MSL
hPa
Rain
since 9 am
mm
Dir
 
Spd
km/h
Gust
km/h
Spd
kts
Gust
kts
27/11:30pm 10.4 7.7 9.0 91 0.7 SSE 13 20 7 11 1006.6 1006.6 2.2
27/11:00pm 10.2 7.5 8.8 91 0.7 SSE 13 22 7 12 1006.5 1006.5 2.2
27/10:30pm 10.4 7.4 9.2 92 0.6 SSE 15 22 8 12 1006.4 1006.4 2.2
27/10:00pm 10.4 8.5 9.0 91 0.7 SSE 9 15 5 8 1006.4 1006.4 2.2
27/09:53pm 10.4 8.4 8.8 90 0.8 SSE 9 15 5 8 1006.4 1006.4 2.2
27/09:33pm 10.6 8.7 8.9 89 0.8 SE 9 15 5 8 1006.5 1006.5 2.0
27/09:30pm 10.7 8.3 8.8 88 0.9 SSE 11 15 6 8 1006.5 1006.5 2.0
27/09:00pm 10.8 7.7 8.9 88 0.9 S 15 24 8 13 1006.2 1006.2 1.8
27/08:30pm 10.7 6.9 9.1 90 0.8 SSW 19 24 10 13 1006.1 1006.1 1.8
27/08:00pm 10.4 6.9 8.8 90 0.8 S 17 20 9 11 1006.0 1006.0 1.8
27/07:30pm 10.7 7.3 9.0 89 0.8 S 17 22 9 12 1005.9 1005.9 1.6
27/07:00pm 10.5 7.3 8.6 88 0.9 SSW 15 20 8 11 1005.7 1005.7 1.4
27/06:30pm 10.6 7.0 8.5 87 1.0 SSW 17 24 9 13 1005.3 1005.3 1.2
27/06:00pm 10.5 7.3 8.6 88 0.9 SSW 15 20 8 11 1005.2 1005.2 1.2
27/05:30pm 10.5 7.3 8.6 88 0.9 SSW 15 17 8 9 1004.8 1004.8 1.0
27/05:00pm 10.6 7.4 8.4 86 1.1 SW 15 17 8 9 1004.6 1004.6 1.0
27/04:30pm 10.8 7.5 8.0 83 1.4 SSW 15 19 8 10 1004.4 1004.4 0.6
27/04:00pm 10.7 7.3 7.8 82 1.4 SSW 15 20 8 11 1004.0 1004.0 0.6
27/03:30pm 10.7 7.4 8.1 84 1.3 SSW 15 19 8 10 1003.8 1003.8 0.6
27/03:00pm 10.9 6.7 8.3 84 1.3 SSW 20 26 11 14 1003.4 1003.4 0.4
27/02:30pm 11.0 8.2 8.4 84 1.3 S 13 17 7 9 1003.1 1003.1 0.4
27/02:00pm 11.0 8.1 8.2 83 1.4 S 13 19 7 10 1002.9 1002.9 0.4
27/01:30pm 10.9 7.7 8.5 85 1.2 S 15 20 8 11 1002.8 1002.8 0.4
27/01:00pm 10.5 7.7 8.4 87 1.0 SSE 13 20 7 11 1002.9 1002.9 0.4
27/12:30pm 10.4 8.3 8.2 86 1.1 SSE 9 15 5 8 1002.9 1002.9 0.2
27/12:00pm 10.6 6.6 8.2 85 1.2 S 19 30 10 16 1002.9 1002.9 0.2
27/11:30am 10.4 7.0 7.8 84 1.3 SSE 15 22 8 12 1003.0 1003.0 0.2
27/11:00am 10.6 6.4 7.5 81 1.5 S 19 32 10 17 1003.1 1003.1 0.0
27/10:30am 10.9 7.0 7.0 77 1.9 S 17 26 9 14 1003.0 1003.0 0.0
27/10:00am 11.1 5.8 6.8 75 2.0 S 24 32 13 17 1002.8 1002.8 0.0
27/09:30am 11.1 5.2 7.4 78 1.8 SSW 28 35 15 19 1002.5 1002.5 0.0
27/09:00am 10.7 5.5 7.2 79 1.7 SSW 24 30 13 16 1002.4 1002.4 15.8
27/08:30am 10.9 3.9 7.0 77 1.9 SSW 33 41 18 22 1002.1 1002.1 15.6
27/08:00am 11.0 5.1 7.3 78 1.8 SSW 28 33 15 18 1001.7 1001.7 15.6
27/07:30am 10.7 4.7 7.2 79 1.7 SSW 28 32 15 17 1001.5 1001.5 15.6
27/07:00am 10.4 4.4 7.1 80 1.6 SSW 28 33 15 18 1001.4 1001.4 15.6
27/06:30am 10.5 4.9 7.2 80 1.6 SSW 26 32 14 17 1001.3 1001.3 15.6
27/06:00am 10.6 4.4 8.0 84 1.3 SSW 30 33 16 18 1001.1 1001.1 15.6
27/05:30am 10.3 4.0 7.4 82 1.4 SSW 30 37 16 20 1001.0 1001.0 15.4
27/05:00am 10.3 3.0 7.4 82 1.4 SSW 35 39 19 21 1000.9 1000.9 15.4
27/04:30am 10.4 3.6 7.1 80 1.6 SSW 32 39 17 21 1000.9 1000.9 15.2
27/04:00am 10.6 4.7 7.3 80 1.6 S 28 39 15 21 1000.6 1000.6 15.2
27/03:30am 10.9 4.9 7.2 78 1.8 S 28 35 15 19 1000.5 1000.5 15.2
27/03:00am 11.1 4.8 7.6 79 1.7 SSW 30 35 16 19 1000.5 1000.5 15.2
27/02:30am 10.9 5.8 7.6 80 1.6 S 24 32 13 17 1000.4 1000.4 15.2
27/02:00am 11.0 5.6 8.2 83 1.4 SSW 26 33 14 18 1000.3 1000.3 15.2
27/01:45am 10.9 5.2 8.5 85 1.2 SSW 28 32 15 17 1000.2 1000.2 15.2
27/01:30am 11.0 6.2 8.8 86 1.1 SW 24 32 13 17 1000.2 1000.2 15.2
27/01:00am 10.6 5.8 9.0 90 0.8 SSW 24 30 13 16 1000.3 1000.3 15.2
27/12:58am 10.6 5.8 9.0 90 0.8 SSW 24 30 13 16 1000.3 1000.3 15.2
27/12:30am 10.2 6.1 8.8 91 0.7 S 20 28 11 15 1000.4 1000.4 15.2
27/12:00am 10.2 5.8 9.0 92 0.6 S 22 30 12 16 1000.7 1000.7 15.2
 
Date/Time
EST
Temp
°C
App
Temp
°C
Dew
Point
Rel
Hum
%
Delta-T
°C
Wind Press
QNH
hPa
Press
MSL
hPa
Rain
since 9 am
mm
Dir
 
Spd
km/h
Gust
km/h
Spd
kts
Gust
kts
26/11:30pm 10.2 5.8 9.0 92 0.6 S 22 32 12 17 1000.7 1000.7 15.0
26/11:12pm 10.3 5.2 9.2 93 0.5 S 26 33 14 18 1000.7 1000.7 15.0
26/11:00pm 10.0 6.2 9.1 94 0.4 S 19 26 10 14 1000.7 1000.7 15.0
26/10:51pm 10.1 6.3 9.2 94 0.4 S 19 26 10 14 1000.7 1000.7 15.0
26/10:30pm 10.0 6.6 9.2 95 0.4 S 17 22 9 12 1000.7 1000.7 14.8
26/10:00pm 9.7 5.9 8.9 95 0.4 SSE 19 28 10 15 1000.5 1000.5 14.8
26/09:30pm 9.9 6.0 9.3 96 0.3 SSE 20 35 11 19 1000.5 1000.5 14.8
26/09:00pm 10.3 6.5 9.8 97 0.3 S 20 30 11 16 1000.5 1000.5 14.6
26/08:59pm 10.3 6.5 9.8 97 0.3 S 20 30 11 16 1000.5 1000.5 14.6
26/08:58pm 10.3 6.5 9.8 97 0.3 S 20 30 11 16 1000.5 1000.5 14.6
26/08:30pm 10.1 6.4 9.6 97 0.2 SSE 19 32 10 17 1000.1 1000.1 14.0
26/08:21pm 10.3 6.6 10.0 98 0.2 SSE 20 33 11 18 1000.0 1000.0 13.8
26/08:01pm 10.6 7.5 10.3 98 0.2 SSE 17 24 9 13 999.8 999.8 13.0
26/08:00pm 10.6 7.5 10.3 98 0.2 SSE 17 24 9 13 999.8 999.8 12.8
26/07:49pm 10.8 7.8 10.5 98 0.2 S 17 26 9 14 999.8 999.8 12.6
26/07:45pm 10.8 7.4 10.5 98 0.2 SSE 19 28 10 15 999.8 999.8 12.4
26/07:30pm 10.9 7.5 10.4 97 0.3 S 19 26 10 14 999.6 999.6 11.8
26/07:25pm 10.9 7.5 10.4 97 0.3 S 19 26 10 14 999.6 999.6 11.6
26/07:15pm 10.9 6.1 10.4 97 0.3 S 26 35 14 19 999.5 999.5 11.4
26/07:03pm 11.0 6.6 10.5 97 0.3 S 24 33 13 18 999.5 999.5 10.8
26/07:00pm 11.0 6.6 10.5 97 0.3 S 24 39 13 21 999.5 999.5 10.8
26/06:52pm 11.1 6.0 10.6 97 0.3 S 28 39 15 21 999.4 999.4 10.4
26/06:43pm 11.1 6.0 10.6 97 0.3 S 28 41 15 22 999.3 999.3 10.0
26/06:41pm 11.1 6.0 10.6 97 0.3 S 28 41 15 22 999.3 999.3 10.0
26/06:30pm 11.2 6.1 10.6 96 0.3 S 28 41 15 22 999.0 999.0 9.6
26/06:19pm 11.7 10.0 11.2 97 0.3 ESE 11 26 6 14 998.7 998.7 8.6
26/06:11pm 12.0 10.8 11.5 97 0.3 SE 9 13 5 7 998.5 998.5 7.8
26/06:00pm 12.1 11.5 11.6 97 0.3 SSE 6 11 3 6 998.3 998.3 7.6
26/05:30pm 12.3 9.6 11.7 96 0.3 SSW 17 26 9 14 998.1 998.1 7.2
26/05:00pm 12.4 7.3 11.9 97 0.3 SW 30 35 16 19 998.1 998.1 6.6
26/04:42pm 12.4 7.7 11.9 97 0.3 SSW 28 33 15 18 998.0 998.0 6.2
26/04:30pm 12.2 7.0 11.7 97 0.3 SSW 30 35 16 19 998.0 998.0 6.0
26/04:00pm 12.5 7.0 12.0 97 0.3 SSW 32 37 17 20 997.8 997.8 5.6
26/03:30pm 12.7 8.1 12.2 97 0.3 SW 28 35 15 19 997.7 997.7 5.2
26/03:00pm 12.7 8.8 12.1 96 0.3 SW 24 32 13 17 997.9 997.9 4.0
26/02:51pm 12.7 8.8 12.1 96 0.3 SW 24 33 13 18 997.9 997.9 4.0
26/02:35pm 12.5 10.2 11.9 96 0.3 NNW 15 22 8 12 998.0 998.0 4.0
26/02:30pm 12.4 9.7 11.8 96 0.3 NNW 17 26 9 14 998.0 998.0 4.0
26/02:00pm 12.4 10.1 11.9 97 0.3 NNW 15 20 8 11 998.4 998.4 3.6
26/01:30pm 12.3 10.0 11.8 97 0.3 NNW 15 20 8 11 998.7 998.7 3.6
26/01:10pm 12.2 10.3 11.7 97 0.3 NNW 13 17 7 9 998.9 998.9 3.4
26/01:00pm 12.2 9.9 11.7 97 0.3 NW 15 20 8 11 999.0 999.0 3.2
26/12:30pm 12.2 10.6 11.7 97 0.3 NNW 11 17 6 9 999.4 999.4 2.0
26/12:00pm 12.2 10.3 11.7 97 0.3 NNW 13 17 7 9 999.7 999.7 1.4
26/11:30am 12.3 10.8 11.8 97 0.3 NNW 11 17 6 9 1000.2 1000.2 0.8
26/11:25am 12.3 10.8 11.8 97 0.3 NNW 11 15 6 8 1000.3 1000.3 0.8
26/11:20am 12.3 10.8 11.8 97 0.3 NNW 11 15 6 8 1000.4 1000.4 0.8
26/11:19am 12.3 10.8 11.8 97 0.3 NNW 11 17 6 9 1000.4 1000.4 0.8
26/11:02am 12.4 10.9 11.9 97 0.3 NNW 11 15 6 8 1000.8 1000.8 0.6
26/11:00am 12.4 10.9 11.9 97 0.3 NNW 11 15 6 8 1000.9 1000.9 0.6
26/10:57am 12.4 10.9 11.9 97 0.3 NNW 11 15 6 8 1000.9 1000.9 0.6
26/10:34am 12.3 10.8 11.8 97 0.3 NNW 11 15 6 8 1001.3 1001.3 0.6
26/10:33am 12.3 10.8 11.8 97 0.3 NNW 11 15 6 8 1001.3 1001.3 0.6
26/10:30am 12.2 10.6 11.7 97 0.3 NNW 11 15 6 8 1001.4 1001.4 0.4
26/10:15am 12.1 10.1 11.6 97 0.3 NNW 13 17 7 9 1001.7 1001.7 0.4
26/10:00am 12.0 10.4 11.5 97 0.3 NNW 11 17 6 9 1001.9 1001.9 0.4
26/09:52am 12.0 10.8 11.5 97 0.3 NNW 9 13 5 7 1001.9 1001.9 0.2
26/09:42am 11.9 10.3 11.4 97 0.3 NNW 11 15 6 8 1001.9 1001.9 0.2
26/09:30am 11.9 9.9 11.4 97 0.3 NNW 13 19 7 10 1002.1 1002.1 0.2
26/09:00am 11.9 10.6 11.3 96 0.3 NNW 9 15 5 8 1002.4 1002.4 5.2
26/08:49am 12.0 10.7 11.4 96 0.3 NNW 9 13 5 7 1002.4 1002.4 5.0
26/08:36am 12.0 10.4 11.4 96 0.3 NNW 11 15 6 8 1002.4 1002.4 4.8
26/08:30am 12.0 10.4 11.4 96 0.3 NNW 11 17 6 9 1002.4 1002.4 4.8
26/08:00am 12.0 10.0 11.4 96 0.3 NNW 13 19 7 10 1002.6 1002.6 4.6
26/07:56am 12.0 10.4 11.4 96 0.3 NNW 11 19 6 10 1002.5 1002.5 4.6
26/07:30am 11.9 9.5 11.3 96 0.3 NW 15 24 8 13 1002.6 1002.6 4.6
26/07:22am 11.8 9.3 11.2 96 0.3 NW 15 26 8 14 1002.6 1002.6 4.6
26/07:00am 11.8 9.3 11.0 95 0.4 NNW 15 19 8 10 1003.0 1003.0 4.4
26/06:46am 11.8 10.4 11.0 95 0.4 NNW 9 17 5 9 1003.0 1003.0 4.2
26/06:30am 11.8 10.4 10.9 94 0.5 NNW 9 11 5 6 1003.0 1003.0 4.2
26/06:28am 11.8 10.4 10.9 94 0.5 NNW 9 11 5 6 1003.1 1003.1 4.0
26/06:00am 11.8 10.0 10.9 94 0.5 NNW 11 15 6 8 1003.0 1003.0 3.6
26/05:57am 11.8 10.0 10.9 94 0.5 NNW 11 15 6 8 1003.1 1003.1 3.6
26/05:42am 11.8 10.0 10.7 93 0.6 NNW 11 19 6 10 1003.2 1003.2 3.4
26/05:30am 11.8 9.1 10.5 92 0.7 NNW 15 20 8 11 1003.4 1003.4 3.4
26/05:22am 11.9 9.6 10.6 92 0.7 NNW 13 20 7 11 1003.5 1003.5 3.2
26/05:20am 11.9 9.6 10.5 91 0.7 NNW 13 17 7 9 1003.5 1003.5 3.0
26/05:00am 12.0 10.1 10.6 91 0.7 N 11 24 6 13 1003.7 1003.7 2.8
26/04:30am 11.9 9.9 10.3 90 0.8 N 11 19 6 10 1003.7 1003.7 2.8
26/04:00am 11.8 9.8 10.2 90 0.8 N 11 15 6 8 1004.2 1004.2 2.8
26/03:30am 12.0 9.7 10.4 90 0.8 N 13 19 7 10 1004.5 1004.5 2.0
26/03:00am 12.3 9.3 10.5 89 0.9 N 17 26 9 14 1004.8 1004.8 1.2
26/02:30am 12.3 9.3 10.7 90 0.8 NNE 17 24 9 13 1005.0 1005.0 1.0
26/02:00am 12.1 9.5 10.7 91 0.7 N 15 22 8 12 1005.5 1005.5 1.0
26/01:30am 11.9 10.5 10.8 93 0.6 N 9 13 5 7 1005.6 1005.6 1.0
26/01:00am 11.9 10.1 10.8 93 0.6 NNW 11 15 6 8 1006.1 1006.1 1.0
26/12:30am 11.9 9.6 10.6 92 0.7 NNW 13 20 7 11 1006.4 1006.4 0.8
26/12:00am 12.1 9.5 10.8 92 0.7 NW 15 24 8 13 1006.9 1006.9 0.8
 
Date/Time
EST
Temp
°C
App
Temp
°C
Dew
Point
Rel
Hum
%
Delta-T
°C
Wind Press
QNH
hPa
Press
MSL
hPa
Rain
since 9 am
mm
Dir
 
Spd
km/h
Gust
km/h
Spd
kts
Gust
kts
25/11:30pm 12.2 8.8 10.6 90 0.8 NW 19 22 10 12 1007.1 1007.1 0.6
25/11:00pm 12.3 8.9 10.4 88 1.0 NW 19 30 10 16 1007.5 1007.5 0.4
25/10:30pm 12.5 8.9 10.4 87 1.1 NW 20 30 11 16 1007.7 1007.7 0.2
25/10:00pm 12.8 7.2 10.0 83 1.4 NW 30 39 16 21 1008.2 1008.2 0.2
25/09:30pm 13.7 8.7 9.6 76 2.1 WNW 26 35 14 19 1008.3 1008.3 0.2
25/09:00pm 13.7 8.8 10.1 79 1.9 WNW 26 35 14 19 1008.5 1008.5 0.2
25/08:30pm 13.7 8.9 10.3 80 1.8 WNW 26 37 14 20 1008.5 1008.5 0.2
25/08:00pm 14.3 11.1 9.9 75 2.3 NW 17 22 9 12 1008.1 1008.1 0.0
25/07:30pm 14.0 11.1 9.8 76 2.2 NNW 15 26 8 14 1008.2 1008.2 0.0
25/07:00pm 13.9 11.0 9.7 76 2.2 NW 15 22 8 12 1008.3 1008.3 0.0
25/06:30pm 13.9 11.0 9.7 76 2.2 NNW 15 20 8 11 1008.5 1008.5 0.0
25/06:00pm 13.7 10.8 9.7 77 2.1 NNW 15 19 8 10 1008.5 1008.5 0.0
25/05:30pm 13.8 11.3 9.8 77 2.1 NNW 13 22 7 12 1008.4 1008.4 0.0
25/05:00pm 13.9 11.9 10.3 79 1.9 NNW 11 17 6 9 1008.6 1008.6 0.0
25/04:30pm 13.8 11.8 10.0 78 2.0 NNW 11 19 6 10 1008.8 1008.8 0.0
25/04:00pm 14.0 11.6 10.0 77 2.1 NNW 13 19 7 10 1008.9 1008.9 0.0
25/03:30pm 14.6 12.3 10.4 76 2.2 NW 13 20 7 11 1009.1 1009.1 0.0
25/03:00pm 14.7 11.5 10.1 74 2.4 NW 17 22 9 12 1009.2 1009.2 0.0
25/02:30pm 15.0 11.4 10.6 75 2.3 WNW 20 26 11 14 1009.6 1009.6 0.0
25/02:00pm 14.9 11.4 10.9 77 2.1 NW 20 30 11 16 1009.8 1009.8 0.0
25/01:30pm 14.9 12.0 10.9 77 2.1 WNW 17 20 9 11 1010.3 1010.3 0.0
25/01:00pm 14.2 11.8 10.2 77 2.1 WNW 13 17 7 9 1010.5 1010.5 0.0
25/12:30pm 14.4 11.5 9.8 74 2.4 WNW 15 20 8 11 1011.0 1011.0 0.0

Other Formats:

Comma delimited format used in spreadsheet applications
http://www.bom.gov.au/fwo/IDT60801/IDT60801.94980.axf

JavaScript Object Notation format (JSON) in row-major order
http://www.bom.gov.au/fwo/IDT60801/IDT60801.94980.json